Time;durP1;ratioP1;P1;durP2;ratioP2;P2;SDS_P1;SDS_P2;PMS_P1;PMS_P2;Temp;Humidity;BMP_temperature;BMP_pressure;BME280_temperature;BME280_humidity;BME280_pressure;Samples;Min_cycle;Max_cycle;Signal;HPM_P1;HPM_P2
2023/12/01 00:00:28;;;;;;;56.88;21.52;;;;;;;;;;5045037;28;20090;-64
2023/12/01 00:02:53;;;;;;;52.95;20.70;;;;;;;;;;5046873;28;20028;-64
2023/12/01 00:05:19;;;;;;;55.22;20.77;;;;;;;;;;5020750;28;20040;-64
2023/12/01 00:07:44;;;;;;;60.97;21.83;;;;;;;;;;5048217;28;20032;-65
2023/12/01 00:10:11;;;;;;;56.83;20.65;;;;;;;;;;5023103;28;20041;-64
2023/12/01 00:12:36;;;;;;;57.00;22.38;;;;;;;;;;5048378;28;20032;-64
2023/12/01 00:15:01;;;;;;;56.63;21.55;;;;;;;;;;5032802;28;20114;-65
2023/12/01 00:17:27;;;;;;;55.95;21.42;;;;;;;;;;5036843;28;20040;-65
2023/12/01 00:19:52;;;;;;;51.92;20.83;;;;;;;;;;5022816;28;20080;-64
2023/12/01 00:22:18;;;;;;;52.25;20.40;;;;;;;;;;5033108;28;20544;-65
2023/12/01 00:24:43;;;;;;;53.55;21.05;;;;;;;;;;5052607;28;20102;-66
2023/12/01 00:27:08;;;;;;;57.25;20.40;;;;;;;;;;5047697;28;20029;-63
2023/12/01 00:29:35;;;;;;;55.72;21.13;;;;;;;;;;5047919;28;20052;-66
2023/12/01 00:32:01;;;;;;;53.90;20.70;;;;;;;;;;5037347;28;20088;-64
2023/12/01 00:34:26;;;;;;;60.92;21.92;;;;;;;;;;5040566;28;20043;-64
2023/12/01 00:36:51;;;;;;;53.28;20.45;;;;;;;;;;5036126;28;20487;-64
2023/12/01 00:39:17;;;;;;;58.92;20.92;;;;;;;;;;5031845;28;20021;-64
2023/12/01 00:41:42;;;;;;;53.25;21.50;;;;;;;;;;5043356;28;20438;-64
2023/12/01 00:44:07;;;;;;;58.63;21.80;;;;;;;;;;5047808;28;20131;-63
2023/12/01 00:46:33;;;;;;;52.17;21.15;;;;;;;;;;5044461;28;20459;-65
2023/12/01 00:48:58;;;;;;;55.53;21.13;;;;;;;;;;5037465;28;20037;-65
2023/12/01 00:51:24;;;;;;;56.38;21.85;;;;;;;;;;5044330;28;20033;-64
2023/12/01 00:53:49;;;;;;;56.35;21.08;;;;;;;;;;5047655;28;20063;-64
2023/12/01 00:56:15;;;;;;;53.75;21.05;;;;;;;;;;5049797;28;20455;-63
2023/12/01 00:58:40;;;;;;;55.33;20.85;;;;;;;;;;5042810;28;20066;-64
2023/12/01 01:01:06;;;;;;;58.60;20.70;;;;;;;;;;5023868;28;20044;-63
2023/12/01 01:03:32;;;;;;;46.88;19.27;;;;;;;;;;5048128;28;20123;-63
2023/12/01 01:05:58;;;;;;;54.20;20.73;;;;;;;;;;5044335;28;20029;-64
2023/12/01 01:08:23;;;;;;;53.55;20.95;;;;;;;;;;5013902;28;20041;-64
2023/12/01 01:10:49;;;;;;;53.53;20.85;;;;;;;;;;5031353;28;20113;-64
2023/12/01 01:13:14;;;;;;;50.17;18.60;;;;;;;;;;5049250;28;20035;-64
2023/12/01 01:15:40;;;;;;;48.38;18.58;;;;;;;;;;5046926;28;20036;-64
2023/12/01 01:18:06;;;;;;;44.08;18.02;;;;;;;;;;5043144;28;20123;-64
2023/12/01 01:20:32;;;;;;;48.95;18.58;;;;;;;;;;5034369;28;20141;-64
2023/12/01 01:22:57;;;;;;;46.42;18.45;;;;;;;;;;5038523;28;20123;-64
2023/12/01 01:25:23;;;;;;;49.72;19.33;;;;;;;;;;5047641;28;20227;-64
2023/12/01 01:27:49;;;;;;;50.08;17.75;;;;;;;;;;5046793;28;20061;-64
2023/12/01 01:30:15;;;;;;;46.88;19.35;;;;;;;;;;5044208;28;20030;-64
2023/12/01 01:32:40;;;;;;;40.67;17.48;;;;;;;;;;5027910;28;20033;-64
2023/12/01 01:35:06;;;;;;;40.10;16.73;;;;;;;;;;5045684;28;20116;-64
2023/12/01 01:37:31;;;;;;;35.28;16.02;;;;;;;;;;5043888;28;20040;-64
2023/12/01 01:39:57;;;;;;;42.33;17.05;;;;;;;;;;5041858;28;20029;-64
2023/12/01 01:42:22;;;;;;;41.20;15.52;;;;;;;;;;5043366;28;20142;-64
2023/12/01 01:44:48;;;;;;;38.45;16.48;;;;;;;;;;5048551;28;20040;-64
2023/12/01 01:47:14;;;;;;;37.72;16.05;;;;;;;;;;5040053;28;20474;-64
2023/12/01 01:49:40;;;;;;;34.85;14.30;;;;;;;;;;5025420;28;20034;-64
2023/12/01 01:52:05;;;;;;;37.95;15.68;;;;;;;;;;5025477;28;20420;-64
2023/12/01 01:54:32;;;;;;;37.40;15.32;;;;;;;;;;5047571;28;20502;-64
2023/12/01 01:56:57;;;;;;;37.55;16.30;;;;;;;;;;5051282;28;20091;-64
2023/12/01 01:59:23;;;;;;;36.30;14.77;;;;;;;;;;5044864;28;20025;-63
2023/12/01 02:01:50;;;;;;;35.85;15.13;;;;;;;;;;5025462;28;20038;-64
2023/12/01 02:04:18;;;;;;;35.42;15.10;;;;;;;;;;5044575;28;20070;-64
2023/12/01 02:06:46;;;;;;;34.50;15.30;;;;;;;;;;5048567;28;20102;-64
2023/12/01 02:09:15;;;;;;;34.22;15.38;;;;;;;;;;5039561;28;20115;-63
2023/12/01 02:11:41;;;;;;;35.70;15.23;;;;;;;;;;5046579;28;20108;-65
2023/12/01 02:14:06;;;;;;;36.55;14.80;;;;;;;;;;5043513;28;20123;-64
2023/12/01 02:16:32;;;;;;;35.72;15.05;;;;;;;;;;5011253;28;20040;-63
2023/12/01 02:18:57;;;;;;;34.08;15.10;;;;;;;;;;5013637;28;20042;-64
2023/12/01 02:21:24;;;;;;;35.17;15.10;;;;;;;;;;5044433;28;20121;-64
2023/12/01 02:23:53;;;;;;;39.35;16.73;;;;;;;;;;5046960;28;20057;-64
2023/12/01 02:26:19;;;;;;;45.20;18.27;;;;;;;;;;5049383;28;20029;-63
2023/12/01 02:28:45;;;;;;;47.58;18.08;;;;;;;;;;5052767;28;20398;-64
2023/12/01 02:31:11;;;;;;;48.42;18.77;;;;;;;;;;5046072;28;20025;-64
2023/12/01 02:33:36;;;;;;;43.75;18.92;;;;;;;;;;5037241;28;20048;-64
2023/12/01 02:36:04;;;;;;;49.75;19.35;;;;;;;;;;5047735;28;20056;-64
2023/12/01 02:38:29;;;;;;;45.03;18.92;;;;;;;;;;5039363;28;20113;-64
2023/12/01 02:40:55;;;;;;;48.83;18.08;;;;;;;;;;5046454;28;21720;-64
2023/12/01 02:43:21;;;;;;;44.10;18.13;;;;;;;;;;5050872;28;20033;-64
2023/12/01 02:45:46;;;;;;;46.25;17.88;;;;;;;;;;5041867;28;20164;-64
2023/12/01 02:48:12;;;;;;;46.53;18.60;;;;;;;;;;5049805;28;20112;-63
2023/12/01 02:50:38;;;;;;;43.97;19.25;;;;;;;;;;5048275;28;20037;-64
2023/12/01 02:53:04;;;;;;;50.28;18.23;;;;;;;;;;5050791;28;20406;-64
2023/12/01 02:55:30;;;;;;;40.17;17.63;;;;;;;;;;5045016;28;20029;-64
2023/12/01 02:57:56;;;;;;;42.33;16.38;;;;;;;;;;5046965;28;20045;-64
2023/12/01 03:00:22;;;;;;;42.53;16.70;;;;;;;;;;5032107;28;20396;-64
2023/12/01 03:02:49;;;;;;;39.88;16.83;;;;;;;;;;5043817;28;20406;-64
2023/12/01 03:05:14;;;;;;;45.30;17.17;;;;;;;;;;5053666;28;20530;-63
2023/12/01 03:07:40;;;;;;;40.97;16.13;;;;;;;;;;5047387;28;20167;-64
2023/12/01 03:10:08;;;;;;;39.95;14.63;;;;;;;;;;5040905;28;20040;-63
2023/12/01 03:12:37;;;;;;;40.13;16.10;;;;;;;;;;5045140;28;20350;-63
2023/12/01 03:15:04;;;;;;;38.55;15.07;;;;;;;;;;5049784;28;20076;-63
2023/12/01 03:17:30;;;;;;;36.45;15.25;;;;;;;;;;5045473;28;20048;-63
2023/12/01 03:19:55;;;;;;;36.85;14.60;;;;;;;;;;5043524;28;20053;-63
2023/12/01 03:22:21;;;;;;;41.63;15.75;;;;;;;;;;5048769;28;20040;-63
2023/12/01 03:24:47;;;;;;;37.65;14.57;;;;;;;;;;5042964;28;20471;-63
2023/12/01 03:27:25;;;;;;;42.20;14.60;;;;;;;;;;5035766;28;20034;-63
2023/12/01 03:29:52;;;;;;;32.15;13.77;;;;;;;;;;5012326;28;20033;-63
2023/12/01 03:32:18;;;;;;;34.15;13.20;;;;;;;;;;5013486;28;20472;-63
2023/12/01 03:34:43;;;;;;;32.28;13.25;;;;;;;;;;5041638;28;20110;-63
2023/12/01 03:37:09;;;;;;;31.90;13.40;;;;;;;;;;5053522;28;20064;-63
2023/12/01 03:39:34;;;;;;;31.70;13.23;;;;;;;;;;5038972;28;20028;-63
2023/12/01 03:42:00;;;;;;;37.28;14.00;;;;;;;;;;5037312;28;20037;-63
2023/12/01 03:44:25;;;;;;;31.58;12.82;;;;;;;;;;5038996;28;20045;-63
2023/12/01 03:46:51;;;;;;;33.65;13.57;;;;;;;;;;5044172;28;20185;-64
2023/12/01 03:49:16;;;;;;;32.63;13.73;;;;;;;;;;5049857;28;20055;-63
2023/12/01 03:51:41;;;;;;;33.75;13.07;;;;;;;;;;5039277;28;20029;-63
2023/12/01 03:54:07;;;;;;;33.40;13.27;;;;;;;;;;5044668;28;20371;-63
2023/12/01 03:56:36;;;;;;;33.90;13.63;;;;;;;;;;5047217;28;20061;-63
2023/12/01 03:59:02;;;;;;;33.22;13.82;;;;;;;;;;5049935;28;20541;-63
2023/12/01 04:01:28;;;;;;;32.15;13.10;;;;;;;;;;5040444;28;20025;-63
2023/12/01 04:03:53;;;;;;;31.67;12.80;;;;;;;;;;5022633;28;20223;-63
2023/12/01 04:06:19;;;;;;;32.92;13.68;;;;;;;;;;5040759;28;20025;-63
2023/12/01 04:08:44;;;;;;;36.35;13.65;;;;;;;;;;5048800;28;20039;-63
2023/12/01 04:11:10;;;;;;;30.27;13.35;;;;;;;;;;5039787;28;20033;-63
2023/12/01 04:13:35;;;;;;;35.00;13.80;;;;;;;;;;5045921;28;20114;-63
2023/12/01 04:16:01;;;;;;;35.58;14.32;;;;;;;;;;5043179;28;20039;-63
2023/12/01 04:18:29;;;;;;;36.60;15.00;;;;;;;;;;5049336;28;20352;-63
2023/12/01 04:20:57;;;;;;;37.17;14.95;;;;;;;;;;5038296;28;20055;-63
2023/12/01 04:23:22;;;;;;;35.30;14.15;;;;;;;;;;5049266;28;20041;-63
2023/12/01 04:25:48;;;;;;;38.58;13.88;;;;;;;;;;5043652;28;20064;-63
2023/12/01 04:28:14;;;;;;;41.55;15.55;;;;;;;;;;5049681;28;20033;-63
2023/12/01 04:30:40;;;;;;;38.50;14.00;;;;;;;;;;5051483;28;20305;-63
2023/12/01 04:33:06;;;;;;;36.33;14.48;;;;;;;;;;5044891;28;20119;-63
2023/12/01 04:35:33;;;;;;;34.47;13.55;;;;;;;;;;5016994;28;20037;-63
2023/12/01 04:38:01;;;;;;;35.55;14.00;;;;;;;;;;5012734;28;20407;-64
2023/12/01 04:40:27;;;;;;;34.67;13.57;;;;;;;;;;5012682;28;20117;-63
2023/12/01 04:42:57;;;;;;;38.10;14.02;;;;;;;;;;5045156;28;20171;-64
2023/12/01 04:45:25;;;;;;;33.83;14.52;;;;;;;;;;5047221;28;20082;-62
2023/12/01 04:47:51;;;;;;;35.05;13.73;;;;;;;;;;5047003;28;20036;-63
2023/12/01 04:50:27;;;;;;;32.88;12.93;;;;;;;;;;5032814;28;20037;-62
2023/12/01 04:52:58;;;;;;;33.08;13.20;;;;;;;;;;5044049;28;20071;-62
2023/12/01 04:55:27;;;;;;;35.50;13.68;;;;;;;;;;5048465;28;20033;-62
2023/12/01 04:57:54;;;;;;;34.05;12.65;;;;;;;;;;5048005;28;20468;-63
2023/12/01 05:00:22;;;;;;;34.90;13.68;;;;;;;;;;5045915;28;20055;-62
2023/12/01 05:03:01;;;;;;;29.90;12.63;;;;;;;;;;5044133;28;20521;-62
2023/12/01 05:05:38;;;;;;;30.00;12.45;;;;;;;;;;5046043;28;20048;-62
2023/12/01 05:08:05;;;;;;;30.38;12.98;;;;;;;;;;5050501;28;20064;-62
2023/12/01 05:10:32;;;;;;;32.90;12.43;;;;;;;;;;5035875;28;20056;-62
2023/12/01 05:13:01;;;;;;;28.10;12.57;;;;;;;;;;5050052;28;20459;-62
2023/12/01 05:15:29;;;;;;;34.47;13.18;;;;;;;;;;5043277;28;20025;-62
2023/12/01 05:17:56;;;;;;;28.40;12.98;;;;;;;;;;5044545;28;20486;-63
2023/12/01 05:20:24;;;;;;;34.38;12.27;;;;;;;;;;5042015;28;20484;-62
2023/12/01 05:22:54;;;;;;;32.25;13.07;;;;;;;;;;5049250;28;20025;-62
2023/12/01 05:25:21;;;;;;;32.78;12.48;;;;;;;;;;5049239;28;20072;-62
2023/12/01 05:27:54;;;;;;;31.10;11.88;;;;;;;;;;5039423;28;20033;-62
2023/12/01 05:30:21;;;;;;;30.30;11.20;;;;;;;;;;5043920;28;20037;-62
2023/12/01 05:32:48;;;;;;;30.83;11.55;;;;;;;;;;5049258;28;20025;-62
2023/12/01 05:35:15;;;;;;;30.33;11.88;;;;;;;;;;5041206;28;20395;-62
2023/12/01 05:37:50;;;;;;;30.55;12.18;;;;;;;;;;5050612;28;20041;-62
2023/12/01 05:40:20;;;;;;;32.25;11.00;;;;;;;;;;5035804;28;20125;-62
2023/12/01 05:42:47;;;;;;;29.55;11.07;;;;;;;;;;5048054;28;20550;-62
2023/12/01 05:45:15;;;;;;;31.10;10.80;;;;;;;;;;5048760;28;20025;-62
2023/12/01 05:47:44;;;;;;;32.67;12.27;;;;;;;;;;5040476;28;20064;-62
2023/12/01 05:50:20;;;;;;;34.00;12.23;;;;;;;;;;5044606;28;20051;-63
2023/12/01 05:52:46;;;;;;;36.50;12.77;;;;;;;;;;5045061;28;20735;-62
2023/12/01 05:55:16;;;;;;;30.90;12.05;;;;;;;;;;5047604;28;20103;-63
2023/12/01 05:57:43;;;;;;;35.28;12.32;;;;;;;;;;5050515;28;20036;-63
2023/12/01 06:00:31;;;;;;;31.30;12.77;;;;;;;;;;5048523;28;20079;-63
2023/12/01 06:02:58;;;;;;;32.85;11.88;;;;;;;;;;5048992;28;20041;-64
2023/12/01 06:05:23;;;;;;;31.98;12.40;;;;;;;;;;5048030;28;20052;-63
2023/12/01 06:07:54;;;;;;;36.47;13.07;;;;;;;;;;5052139;28;20071;-63
2023/12/01 06:10:21;;;;;;;34.35;13.57;;;;;;;;;;5051366;28;20059;-63
2023/12/01 06:12:47;;;;;;;33.33;13.50;;;;;;;;;;5040045;28;20119;-63
2023/12/01 06:15:15;;;;;;;37.95;13.50;;;;;;;;;;5055112;28;20072;-62
2023/12/01 06:17:42;;;;;;;36.55;13.95;;;;;;;;;;5044133;28;20037;-63
2023/12/01 06:20:17;;;;;;;36.47;13.88;;;;;;;;;;5049990;28;20044;-63
2023/12/01 06:22:53;;;;;;;35.38;12.68;;;;;;;;;;5022937;28;20092;-63
2023/12/01 06:25:28;;;;;;;35.05;13.75;;;;;;;;;;5034092;28;20438;-63
2023/12/01 06:27:56;;;;;;;38.22;14.48;;;;;;;;;;5023717;28;20034;-62
2023/12/01 06:30:24;;;;;;;39.35;14.45;;;;;;;;;;5014953;28;20029;-62
2023/12/01 06:32:52;;;;;;;40.67;15.02;;;;;;;;;;5014342;28;20033;-62
2023/12/01 06:35:19;;;;;;;36.05;13.43;;;;;;;;;;5014692;28;20490;-62
2023/12/01 06:37:45;;;;;;;33.38;13.02;;;;;;;;;;5040453;28;20823;-62
2023/12/01 06:40:12;;;;;;;33.30;13.05;;;;;;;;;;5053418;28;20056;-62
2023/12/01 06:42:40;;;;;;;37.38;14.13;;;;;;;;;;5049792;28;20037;-62
2023/12/01 06:45:06;;;;;;;35.85;13.45;;;;;;;;;;5039659;28;20529;-62
2023/12/01 06:47:33;;;;;;;37.85;14.43;;;;;;;;;;5046351;28;20036;-62
2023/12/01 06:49:58;;;;;;;39.38;15.15;;;;;;;;;;5047267;28;20068;-64
2023/12/01 06:52:24;;;;;;;35.78;13.88;;;;;;;;;;5048214;28;20060;-63
2023/12/01 06:54:49;;;;;;;35.35;13.65;;;;;;;;;;5053454;28;20353;-63
2023/12/01 06:57:15;;;;;;;32.75;13.20;;;;;;;;;;5050496;28;20037;-62
2023/12/01 06:59:40;;;;;;;32.97;12.20;;;;;;;;;;5050853;28;20402;-63
2023/12/01 07:02:06;;;;;;;38.25;14.50;;;;;;;;;;5046748;28;20032;-63
2023/12/01 07:04:32;;;;;;;36.72;14.57;;;;;;;;;;5050856;28;20045;-62
2023/12/01 07:07:00;;;;;;;36.67;14.07;;;;;;;;;;5049865;28;20390;-61
2023/12/01 07:09:29;;;;;;;34.03;13.88;;;;;;;;;;5051047;28;20064;-64
2023/12/01 07:11:54;;;;;;;37.35;13.48;;;;;;;;;;5049703;28;20046;-62
2023/12/01 07:14:23;;;;;;;33.83;13.63;;;;;;;;;;5051756;28;20435;-62
2023/12/01 07:16:49;;;;;;;33.60;12.88;;;;;;;;;;5053221;28;20036;-63
2023/12/01 07:19:14;;;;;;;34.05;13.02;;;;;;;;;;5043406;28;20049;-62
2023/12/01 07:21:40;;;;;;;35.65;13.25;;;;;;;;;;5046949;28;20368;-63
2023/12/01 07:24:07;;;;;;;31.50;13.05;;;;;;;;;;5034039;28;20123;-63
2023/12/01 07:26:34;;;;;;;34.38;12.77;;;;;;;;;;5048710;28;20176;-63
2023/12/01 07:29:04;;;;;;;30.33;12.55;;;;;;;;;;5053906;28;20099;-63
2023/12/01 07:31:37;;;;;;;35.58;13.38;;;;;;;;;;5040883;28;20114;-62
2023/12/01 07:34:03;;;;;;;36.97;13.88;;;;;;;;;;5029060;28;20479;-62
2023/12/01 07:36:29;;;;;;;30.05;12.60;;;;;;;;;;5049721;28;20106;-63
2023/12/01 07:38:54;;;;;;;34.05;13.15;;;;;;;;;;5052979;28;20029;-62
2023/12/01 07:41:21;;;;;;;39.50;13.75;;;;;;;;;;5045761;28;20105;-63
2023/12/01 07:43:46;;;;;;;34.20;12.90;;;;;;;;;;5045873;28;20037;-62
2023/12/01 07:46:12;;;;;;;39.90;13.82;;;;;;;;;;5045828;28;20124;-62
2023/12/01 07:48:37;;;;;;;33.50;13.88;;;;;;;;;;5049409;28;20033;-62
2023/12/01 07:51:04;;;;;;;36.08;14.02;;;;;;;;;;5048366;28;20124;-63
2023/12/01 07:53:30;;;;;;;35.50;13.75;;;;;;;;;;5048911;28;20139;-63
2023/12/01 07:55:55;;;;;;;33.38;12.85;;;;;;;;;;5047316;28;20439;-63
2023/12/01 07:58:21;;;;;;;35.22;13.52;;;;;;;;;;5051593;28;20044;-63
2023/12/01 08:00:46;;;;;;;34.70;13.77;;;;;;;;;;5048364;28;20438;-63
2023/12/01 08:03:12;;;;;;;32.30;13.15;;;;;;;;;;5044794;28;20441;-61
2023/12/01 08:05:39;;;;;;;30.80;13.32;;;;;;;;;;5052018;28;20443;-63
2023/12/01 08:08:04;;;;;;;34.95;13.60;;;;;;;;;;5049326;28;20045;-63
2023/12/01 08:10:30;;;;;;;35.35;13.70;;;;;;;;;;5047862;28;20039;-62
2023/12/01 08:12:56;;;;;;;34.83;13.77;;;;;;;;;;5046302;28;20033;-62
2023/12/01 08:15:21;;;;;;;29.58;12.80;;;;;;;;;;5052618;28;20039;-63
2023/12/01 08:17:47;;;;;;;31.55;12.63;;;;;;;;;;5050043;28;20028;-63
2023/12/01 08:20:14;;;;;;;30.75;12.07;;;;;;;;;;5038693;28;20127;-63
2023/12/01 08:22:43;;;;;;;29.92;12.57;;;;;;;;;;5045839;28;20060;-63
2023/12/01 08:25:09;;;;;;;33.10;12.23;;;;;;;;;;5045002;28;20040;-63
2023/12/01 08:27:39;;;;;;;30.38;12.73;;;;;;;;;;5047376;28;20033;-63
2023/12/01 08:30:05;;;;;;;31.15;12.98;;;;;;;;;;5048907;28;20033;-63
2023/12/01 08:32:30;;;;;;;29.13;13.02;;;;;;;;;;5041775;28;20083;-63
2023/12/01 08:34:56;;;;;;;32.65;13.18;;;;;;;;;;5043037;28;20044;-63
2023/12/01 08:37:21;;;;;;;33.63;12.80;;;;;;;;;;5045179;28;20029;-64
2023/12/01 08:39:47;;;;;;;32.60;13.30;;;;;;;;;;5039142;28;20533;-63
2023/12/01 08:42:12;;;;;;;31.17;12.80;;;;;;;;;;5046573;28;20033;-63
2023/12/01 08:44:38;;;;;;;31.60;12.55;;;;;;;;;;5051220;28;20025;-62
2023/12/01 08:47:03;;;;;;;32.45;12.40;;;;;;;;;;5044533;28;20061;-62
2023/12/01 08:49:30;;;;;;;28.92;11.25;;;;;;;;;;5049532;28;20364;-62
2023/12/01 08:51:55;;;;;;;29.88;12.20;;;;;;;;;;5042583;28;20671;-63
2023/12/01 08:54:22;;;;;;;29.80;11.85;;;;;;;;;;5049498;28;20138;-63
2023/12/01 08:56:47;;;;;;;25.98;11.02;;;;;;;;;;5044718;28;20043;-63
2023/12/01 08:59:13;;;;;;;29.60;11.60;;;;;;;;;;5051628;28;20024;-62
2023/12/01 09:01:40;;;;;;;26.08;10.80;;;;;;;;;;5036769;28;20029;-62
2023/12/01 09:04:06;;;;;;;28.58;11.45;;;;;;;;;;5051829;28;20033;-63
2023/12/01 09:06:31;;;;;;;33.20;12.77;;;;;;;;;;5047731;28;20317;-63
2023/12/01 09:08:57;;;;;;;32.10;13.13;;;;;;;;;;5043668;28;20028;-63
2023/12/01 09:11:22;;;;;;;29.00;11.40;;;;;;;;;;5046520;28;21644;-63
2023/12/01 09:13:48;;;;;;;29.95;11.82;;;;;;;;;;5043977;28;20036;-63
2023/12/01 09:16:13;;;;;;;29.45;11.52;;;;;;;;;;5044422;28;20025;-63
2023/12/01 09:18:38;;;;;;;31.70;12.45;;;;;;;;;;5048851;28;20128;-63
2023/12/01 09:21:04;;;;;;;29.05;11.68;;;;;;;;;;5035688;28;20033;-63
2023/12/01 09:23:29;;;;;;;25.70;11.15;;;;;;;;;;5034326;28;20017;-63
2023/12/01 09:25:55;;;;;;;28.83;11.50;;;;;;;;;;5020657;28;20086;-62
2023/12/01 09:28:23;;;;;;;26.58;11.65;;;;;;;;;;5031496;28;20053;-63
2023/12/01 09:30:48;;;;;;;30.75;11.98;;;;;;;;;;5012952;28;20109;-62
2023/12/01 09:33:14;;;;;;;29.42;11.85;;;;;;;;;;5012200;28;20112;-64
2023/12/01 09:35:39;;;;;;;30.65;12.40;;;;;;;;;;5010925;28;20152;-62
2023/12/01 09:38:05;;;;;;;33.78;12.77;;;;;;;;;;5010707;28;20054;-62
2023/12/01 09:40:35;;;;;;;33.65;12.73;;;;;;;;;;5011645;28;20096;-62
2023/12/01 09:43:01;;;;;;;33.40;12.80;;;;;;;;;;5027457;28;20049;-62
2023/12/01 09:45:26;;;;;;;33.45;12.48;;;;;;;;;;5031703;28;20030;-62
2023/12/01 09:48:06;;;;;;;31.02;11.93;;;;;;;;;;5030409;28;20117;-62
2023/12/01 09:50:31;;;;;;;32.13;12.57;;;;;;;;;;5030680;28;20030;-63
2023/12/01 09:52:57;;;;;;;31.70;13.25;;;;;;;;;;5030547;28;20030;-62
2023/12/01 09:55:22;;;;;;;33.78;12.80;;;;;;;;;;5031484;28;20434;-62
2023/12/01 09:57:48;;;;;;;33.17;12.73;;;;;;;;;;5030677;28;20041;-62
2023/12/01 10:00:15;;;;;;;31.13;12.07;;;;;;;;;;5031173;28;20421;-63
2023/12/01 10:02:43;;;;;;;30.20;12.38;;;;;;;;;;5030732;28;20036;-62
2023/12/01 10:05:13;;;;;;;28.45;11.18;;;;;;;;;;5031401;28;20041;-63
2023/12/01 10:07:39;;;;;;;31.05;12.20;;;;;;;;;;5030363;28;20427;-62
2023/12/01 10:10:25;;;;;;;30.20;11.98;;;;;;;;;;5030963;28;20467;-62
2023/12/01 10:12:58;;;;;;;31.88;11.80;;;;;;;;;;5030377;28;20080;-62
2023/12/01 10:15:24;;;;;;;30.17;11.52;;;;;;;;;;5031340;28;20072;-63
2023/12/01 10:17:51;;;;;;;30.63;12.02;;;;;;;;;;5025942;28;20512;-62
2023/12/01 10:20:20;;;;;;;24.90;10.98;;;;;;;;;;5010997;28;20049;-62
2023/12/01 10:22:46;;;;;;;31.42;11.90;;;;;;;;;;5010433;28;20041;-62
2023/12/01 10:25:12;;;;;;;27.60;11.48;;;;;;;;;;5011475;28;20026;-62
2023/12/01 10:27:39;;;;;;;28.70;11.82;;;;;;;;;;5011050;28;20026;-62
2023/12/01 10:30:12;;;;;;;32.28;12.38;;;;;;;;;;5010767;28;20542;-62
2023/12/01 10:32:38;;;;;;;27.15;11.48;;;;;;;;;;5011190;28;20034;-63
2023/12/01 10:35:07;;;;;;;31.00;11.90;;;;;;;;;;5010518;28;20075;-62
2023/12/01 10:37:33;;;;;;;32.38;11.98;;;;;;;;;;5011237;28;20539;-62
2023/12/01 10:40:00;;;;;;;29.05;11.75;;;;;;;;;;5040410;28;20391;-62
2023/12/01 10:42:29;;;;;;;29.00;11.55;;;;;;;;;;5045903;28;20045;-62
2023/12/01 10:44:58;;;;;;;29.60;11.00;;;;;;;;;;5025198;28;20112;-62
2023/12/01 10:47:25;;;;;;;25.13;10.95;;;;;;;;;;5043172;28;20064;-62
2023/12/01 10:49:53;;;;;;;30.80;11.65;;;;;;;;;;5049661;28;20047;-62
2023/12/01 10:52:19;;;;;;;28.45;11.07;;;;;;;;;;5048486;28;20029;-62
2023/12/01 10:54:44;;;;;;;28.80;11.30;;;;;;;;;;5048558;28;20029;-62
2023/12/01 10:57:13;;;;;;;26.02;10.70;;;;;;;;;;5054601;28;20419;-62
2023/12/01 10:59:41;;;;;;;25.45;10.13;;;;;;;;;;5051814;28;20086;-62
2023/12/01 11:02:13;;;;;;;25.17;10.25;;;;;;;;;;5045995;28;20110;-63
2023/12/01 11:04:44;;;;;;;24.20;9.85;;;;;;;;;;5051597;28;20032;-62
2023/12/01 11:07:09;;;;;;;;;;;;;;;;;;5049069;28;20123;-62
2023/12/01 11:09:52;;;;;;;25.08;9.38;;;;;;;;;;5052839;28;19955;-62
2023/12/01 11:12:51;;;;;;;24.45;9.13;;;;;;;;;;5047491;28;20064;-62
2023/12/01 11:15:21;;;;;;;27.23;10.10;;;;;;;;;;5051355;28;20090;-62
2023/12/01 11:17:47;;;;;;;25.00;9.50;;;;;;;;;;5046034;28;20072;-62
2023/12/01 11:20:31;;;;;;;23.92;9.93;;;;;;;;;;5051083;28;20076;-62
2023/12/01 11:23:10;;;;;;;21.45;9.10;;;;;;;;;;5047062;28;20041;-62
2023/12/01 11:25:49;;;;;;;24.85;9.43;;;;;;;;;;5051425;28;20032;-62
2023/12/01 11:28:42;;;;;;;25.50;9.15;;;;;;;;;;5038135;28;20051;-62
2023/12/01 11:34:00;;;;;;;23.17;9.20;;;;;;;;;;5040384;28;20074;-62
2023/12/01 11:36:33;;;;;;;24.67;9.40;;;;;;;;;;5049651;28;20113;-62
2023/12/01 11:39:08;;;;;;;19.52;8.05;;;;;;;;;;5052631;28;20025;-62
2023/12/01 11:41:34;;;;;;;20.80;8.63;;;;;;;;;;5047296;28;20057;-62
2023/12/01 11:44:07;;;;;;;21.00;8.77;;;;;;;;;;5025485;28;20021;-62
2023/12/01 11:46:36;;;;;;;25.40;9.13;;;;;;;;;;5039568;28;20498;-62
2023/12/01 11:49:02;;;;;;;22.17;9.38;;;;;;;;;;5022241;28;20057;-62
2023/12/01 11:51:27;;;;;;;21.88;8.73;;;;;;;;;;5033177;28;20483;-62
2023/12/01 11:54:03;;;;;;;17.90;7.90;;;;;;;;;;5016006;28;20041;-62
2023/12/01 11:56:30;;;;;;;23.20;8.73;;;;;;;;;;5013545;28;20360;-63
2023/12/01 11:58:56;;;;;;;24.25;9.45;;;;;;;;;;5012778;28;20516;-62
2023/12/01 12:01:22;;;;;;;20.00;9.13;;;;;;;;;;5012628;28;20038;-62
2023/12/01 12:03:55;;;;;;;18.17;8.40;;;;;;;;;;5012506;28;20033;-63
2023/12/01 12:06:23;;;;;;;20.02;9.05;;;;;;;;;;5031129;28;20033;-62
2023/12/01 12:08:50;;;;;;;19.17;9.32;;;;;;;;;;5032400;28;20025;-63
2023/12/01 12:11:17;;;;;;;18.52;9.10;;;;;;;;;;5032982;28;20483;-62
2023/12/01 12:13:42;;;;;;;22.15;9.15;;;;;;;;;;5032718;28;20105;-63
2023/12/01 12:16:08;;;;;;;19.98;9.50;;;;;;;;;;5030600;28;20648;-62
2023/12/01 12:18:34;;;;;;;21.38;9.32;;;;;;;;;;5032520;28;20719;-63
2023/12/01 12:21:04;;;;;;;20.13;8.73;;;;;;;;;;5031800;28;20033;-63
2023/12/01 12:23:30;;;;;;;19.70;9.35;;;;;;;;;;5032090;28;20029;-62
2023/12/01 12:26:14;;;;;;;21.83;10.07;;;;;;;;;;5031612;28;20033;-62
2023/12/01 12:28:41;;;;;;;21.60;9.93;;;;;;;;;;5031354;28;20021;-62
2023/12/01 12:31:07;;;;;;;21.70;10.30;;;;;;;;;;5031783;28;20571;-62
2023/12/01 12:33:32;;;;;;;20.38;9.52;;;;;;;;;;5032457;28;20104;-64
2023/12/01 12:36:01;;;;;;;22.67;9.85;;;;;;;;;;5031692;28;20116;-63
2023/12/01 12:38:26;;;;;;;21.58;9.93;;;;;;;;;;5032594;28;20535;-64
2023/12/01 12:40:52;;;;;;;22.85;10.82;;;;;;;;;;5028404;28;20030;-61
2023/12/01 12:43:20;;;;;;;22.40;9.05;;;;;;;;;;5012385;28;20072;-63
2023/12/01 12:45:51;;;;;;;26.27;10.13;;;;;;;;;;5012303;28;20399;-63
2023/12/01 12:48:17;;;;;;;22.52;10.45;;;;;;;;;;5036641;28;20494;-63
2023/12/01 12:50:46;;;;;;;23.50;9.88;;;;;;;;;;5027384;28;20030;-63
2023/12/01 12:53:11;;;;;;;21.48;9.95;;;;;;;;;;5039328;28;20061;-63
2023/12/01 12:55:37;;;;;;;24.58;9.57;;;;;;;;;;5049822;28;20102;-62
2023/12/01 12:58:02;;;;;;;23.35;9.63;;;;;;;;;;5051137;28;20382;-62
2023/12/01 13:00:28;;;;;;;23.90;9.98;;;;;;;;;;5048072;28;20025;-62
2023/12/01 13:02:53;;;;;;;21.15;9.55;;;;;;;;;;5040603;28;20542;-63
2023/12/01 13:05:20;;;;;;;26.63;11.73;;;;;;;;;;5046489;28;20029;-64
2023/12/01 13:07:45;;;;;;;25.95;11.43;;;;;;;;;;5048179;28;20355;-63
2023/12/01 13:10:10;;;;;;;28.90;13.13;;;;;;;;;;5040330;28;20483;-61
2023/12/01 13:12:37;;;;;;;24.88;11.77;;;;;;;;;;5044534;28;20116;-62
2023/12/01 13:15:03;;;;;;;23.20;10.70;;;;;;;;;;5045645;28;20382;-63
2023/12/01 13:17:29;;;;;;;25.83;11.90;;;;;;;;;;5044292;28;20541;-63
2023/12/01 13:19:54;;;;;;;25.00;10.85;;;;;;;;;;5043461;28;20045;-62
2023/12/01 13:22:20;;;;;;;24.52;11.15;;;;;;;;;;5024236;28;20029;-63
2023/12/01 13:24:46;;;;;;;24.70;11.10;;;;;;;;;;5042835;28;20468;-63
2023/12/01 13:27:12;;;;;;;23.30;11.05;;;;;;;;;;5030581;28;20017;-64
2023/12/01 13:29:38;;;;;;;24.98;10.63;;;;;;;;;;5030205;28;20486;-62
2023/12/01 13:32:04;;;;;;;23.75;10.32;;;;;;;;;;5047427;28;20068;-63
2023/12/01 13:34:29;;;;;;;21.67;9.70;;;;;;;;;;5034610;28;20029;-63
2023/12/01 13:36:55;;;;;;;19.98;9.52;;;;;;;;;;5047868;28;20087;-63
2023/12/01 13:39:21;;;;;;;19.60;9.02;;;;;;;;;;5050253;28;20475;-64
2023/12/01 13:41:46;;;;;;;18.90;9.02;;;;;;;;;;5036394;28;20067;-63
2023/12/01 13:44:12;;;;;;;18.98;8.80;;;;;;;;;;5048088;28;20057;-62
2023/12/01 13:46:37;;;;;;;20.00;8.85;;;;;;;;;;5041335;28;20036;-63
2023/12/01 13:49:03;;;;;;;19.02;8.27;;;;;;;;;;5050175;28;20052;-62
2023/12/01 13:51:28;;;;;;;20.27;8.88;;;;;;;;;;5029835;28;20033;-63
2023/12/01 13:53:54;;;;;;;19.75;9.18;;;;;;;;;;5047734;28;20130;-63
2023/12/01 13:56:19;;;;;;;18.23;8.40;;;;;;;;;;5048337;28;20033;-63
2023/12/01 13:58:45;;;;;;;19.23;8.85;;;;;;;;;;5051286;28;20039;-63
2023/12/01 14:01:10;;;;;;;18.85;8.43;;;;;;;;;;5047716;28;20751;-62
2023/12/01 14:03:36;;;;;;;23.17;8.85;;;;;;;;;;5043756;28;20112;-64
2023/12/01 14:06:02;;;;;;;19.63;9.15;;;;;;;;;;5043920;28;20040;-63
2023/12/01 14:08:28;;;;;;;19.00;8.52;;;;;;;;;;5050914;28;20028;-62
2023/12/01 14:10:54;;;;;;;17.17;8.05;;;;;;;;;;5045278;28;20467;-62
2023/12/01 14:13:20;;;;;;;21.10;8.63;;;;;;;;;;5047887;28;20120;-63
2023/12/01 14:15:46;;;;;;;17.90;8.13;;;;;;;;;;5047183;28;20033;-62
2023/12/01 14:18:12;;;;;;;17.67;8.73;;;;;;;;;;5045243;28;20094;-62
2023/12/01 14:20:38;;;;;;;20.15;8.57;;;;;;;;;;5030513;28;20061;-63